Latest Coastal Weather Observations for Cape Ferguson

IDQ60701

Issued at 5:12 am EST Wednesday 18 January 2017 (issued every 10 minutes, with the page automatically refreshed every 10 minutes)

About coastal observations | Map of coastal stations | Coastal observations for QLD | Marine services | Other Formats
Station Details ID: 032182 Name: CAPE FERGUSON NTC AWS Lat: -19.28 Lon: 147.06 Height: 0.0 m
Data from the previous 72 hours. | See also: Recent months for locations in Queensland
Date/Time
EST
Temp
°C
Wind Pressure Rain since
9am
mm
Weather Cloud Vis
km
Sea
Height
m
Swell
Dir  Spd
kts
Gust
kts
hPa Trend Height
m
Period
s
Dir
18/05:00am 26.1 WSW 3 7 1011.9 - - - - - - - - -
18/04:30am 27.0 SSE 8 10 1011.4 - - - - - - - - -
18/04:00am 27.4 SSE 9 11 1011.2 - - - - - - - - -
18/03:30am 28.0 ESE 8 13 1011.1 - - - - - - - - -
18/03:00am 27.6 SE 11 13 1011.2 - - - - - - - - -
18/02:30am 27.8 SE 11 13 1011.3 - - - - - - - - -
18/02:00am 28.5 ESE 13 17 1011.5 - - - - - - - - -
18/01:30am 28.5 ESE 14 16 1011.6 - - - - - - - - -
18/01:00am 27.9 SE 11 14 1011.9 - - - - - - - - -
18/12:30am 27.9 SSE 9 12 1012.3 - - - - - - - - -
18/12:00am 28.1 SE 9 11 1012.7 - - - - - - - - -
 
Date/Time
EST
Temp
°C
Wind Pressure Rain since
9am
mm
Weather Cloud Vis
km
Sea
Height
m
Swell
Dir  Spd
kts
Gust
kts
hPa Trend Height
m
Period
s
Dir
17/11:30pm 28.2 SE 9 12 1013.0 - - - - - - - - -
17/11:00pm 28.1 SE 8 11 1013.2 - - - - - - - - -
17/10:30pm 28.0 SE 8 12 1013.5 - - - - - - - - -
17/10:00pm 28.0 SSE 7 9 1013.3 - - - - - - - - -
17/09:30pm 28.8 ESE 9 11 1013.2 - - - - - - - - -
17/09:00pm 28.6 E 8 10 1013.0 - - - - - - - - -
17/08:30pm 28.6 E 10 12 1012.9 - - - - - - - - -
17/08:00pm 28.4 ESE 10 12 1012.6 - - - - - - - - -
17/07:30pm 28.5 E 13 15 1012.4 - - - - - - - - -
17/07:00pm 28.0 E 12 14 1012.2 - - - - - - - - -
17/06:30pm 28.0 ESE 15 18 1012.2 - - - - - - - - -
17/06:00pm 28.3 E 13 16 1012.0 - - - - - - - - -
17/05:30pm 27.3 E 7 9 1011.6 - - - - - - - - -
17/05:00pm 26.2 ESE 15 18 1011.6 - - - - - - - - -
17/04:30pm 26.8 E 13 16 1011.5 - - - - - - - - -
17/04:00pm 26.9 E 12 15 1011.6 - - - - - - - - -
17/03:30pm 26.4 ESE 15 18 1011.7 - - - - - - - - -
17/03:00pm 27.4 E 10 13 1011.5 - - - - - - - - -
17/02:30pm 26.9 E 10 13 1011.4 - - - - - - - - -
17/02:00pm 27.1 E 14 16 1012.1 - - - - - - - - -
17/01:30pm 27.6 E 9 11 1012.1 - - - - - - - - -
17/01:00pm 27.4 ENE 9 10 1012.4 - - - - - - - - -
17/12:30pm 27.5 ENE 9 11 1012.7 - - - - - - - - -
17/12:00pm 27.6 ENE 6 9 1012.9 - - - - - - - - -
17/11:30am 26.9 E 12 14 1013.2 - - - - - - - - -
17/11:00am 27.6 E 9 13 1013.6 - - - - - - - - -
17/10:30am 28.2 E 5 6 1013.5 - - - - - - - - -
17/10:00am 28.2 SE 5 7 1013.5 - - - - - - - - -
17/09:30am 27.9 SE 6 8 1013.4 - - - - - - - - -
17/09:00am 27.5 SE 7 8 1013.4 - - - - - - - - -
17/08:30am 27.1 SE 8 9 1013.3 - - - - - - - - -
17/08:00am 27.0 SSE 4 6 1013.1 - - - - - - - - -
17/07:30am 26.7 SW 1 3 1013.0 - - - - - - - - -
17/07:00am 26.6 WSW 1 2 1012.6 - - - - - - - - -
17/06:30am 25.4 NW 5 7 1012.2 - - - - - - - - -
17/06:00am 25.3 SW 3 4 1012.0 - - - - - - - - -
17/05:30am 25.4 W 7 10 1011.6 - - - - - - - - -
17/05:00am 26.5 S 2 8 1011.1 - - - - - - - - -
17/04:30am 26.5 E 1 2 1010.7 - - - - - - - - -
17/04:00am 26.2 NNE 4 9 1010.7 - - - - - - - - -
17/03:30am 25.8 NNW 2 5 1010.5 - - - - - - - - -
17/03:00am 24.8 NNW 8 15 1010.7 - - - - - - - - -
17/02:30am 25.9 NNW 7 13 1010.7 - - - - - - - - -
17/02:00am 27.4 NE 6 13 1010.7 - - - - - - - - -
17/01:30am 28.3 ENE 10 13 1010.8 - - - - - - - - -
17/01:00am 28.4 ENE 10 13 1011.0 - - - - - - - - -
17/12:30am 28.3 ENE 11 13 1011.2 - - - - - - - - -
17/12:00am 28.4 ENE 10 12 1011.4 - - - - - - - - -
 
Date/Time
EST
Temp
°C
Wind Pressure Rain since
9am
mm
Weather Cloud Vis
km
Sea
Height
m
Swell
Dir  Spd
kts
Gust
kts
hPa Trend Height
m
Period
s
Dir
16/11:30pm 28.5 ENE 11 13 1011.8 - - - - - - - - -
16/11:00pm 28.4 ENE 10 13 1011.9 - - - - - - - - -
16/10:30pm 28.4 ENE 12 15 1012.1 - - - - - - - - -
16/10:00pm 28.3 ENE 13 15 1012.0 - - - - - - - - -
16/09:30pm 28.2 ENE 16 19 1011.9 - - - - - - - - -
16/09:00pm 28.5 ENE 14 16 1011.6 - - - - - - - - -
16/08:30pm 28.4 ENE 13 15 1011.3 - - - - - - - - -
16/08:00pm 28.4 ENE 13 16 1010.9 - - - - - - - - -
16/07:30pm 28.5 ENE 15 17 1010.7 - - - - - - - - -
16/07:00pm 28.5 ENE 13 15 1010.4 - - - - - - - - -
16/06:30pm 28.4 ENE 13 16 1009.9 - - - - - - - - -
16/06:00pm 28.7 ENE 11 14 1009.5 - - - - - - - - -
16/05:30pm 28.4 ENE 12 15 1009.0 - - - - - - - - -
16/05:00pm 28.3 ENE 10 13 1008.7 - - - - - - - - -
16/04:30pm 28.3 ENE 10 12 1008.5 - - - - - - - - -
16/04:00pm 28.1 ENE 9 13 1008.6 - - - - - - - - -
16/03:30pm 28.1 ENE 8 11 1008.7 - - - - - - - - -
16/03:00pm 28.1 ENE 5 8 1008.8 - - - - - - - - -
16/02:30pm 28.0 ENE 8 10 1009.0 - - - - - - - - -
16/02:00pm 27.8 ENE 10 12 1009.0 - - - - - - - - -
16/01:30pm 27.6 ENE 9 11 1009.0 - - - - - - - - -
16/01:00pm 27.4 ENE 6 8 1009.1 - - - - - - - - -
16/12:30pm 27.5 ENE 5 7 1009.3 - - - - - - - - -
16/12:00pm 27.4 ENE 8 10 1009.7 - - - - - - - - -
16/11:30am 27.4 E 5 7 1009.6 - - - - - - - - -
16/11:00am 27.3 E 5 7 1009.7 - - - - - - - - -
16/10:30am 27.4 ESE 2 3 1009.6 - - - - - - - - -
16/10:00am 26.9 ENE 2 3 1009.8 - - - - - - - - -
16/09:30am 26.7 ESE 4 6 1010.2 - - - - - - - - -
16/09:00am 26.4 ESE 3 5 1010.3 - - - - - - - - -
16/08:30am 25.9 WSW 3 5 1010.2 - - - - - - - - -
16/08:00am 26.0 S 2 4 1009.9 - - - - - - - - -
16/07:30am 25.9 E 7 8 1009.8 - - - - - - - - -
16/07:00am 25.0 NE 2 3 1009.3 - - - - - - - - -
16/06:30am 24.4 W 5 7 1008.4 - - - - - - - - -
16/06:00am 24.2 WSW 5 8 1008.3 - - - - - - - - -
16/05:30am 24.1 NNE 2 5 1008.4 - - - - - - - - -
16/05:00am 24.5 ESE 1 3 1008.0 - - - - - - - - -
16/04:30am 24.6 SW 10 13 1007.6 - - - - - - - - -
16/04:00am 24.1 WSW 10 13 1007.1 - - - - - - - - -
16/03:30am 24.0 SW 10 12 1007.1 - - - - - - - - -
16/03:00am 24.4 SW 11 13 1007.5 - - - - - - - - -
16/02:30am 24.4 SSW 9 11 1008.0 - - - - - - - - -
16/02:00am 24.5 SW 13 16 1007.9 - - - - - - - - -
16/01:30am 24.9 W 7 10 1008.1 - - - - - - - - -
16/01:00am 25.2 NW 9 22 1008.4 - - - - - - - - -
16/12:55am 26.4 E 8 22 1007.8 - - - - - - - - -
16/12:30am 25.9 NW 2 7 1007.9 - - - - - - - - -
16/12:00am 26.2 NE 10 21 1008.3 - - - - - - - - -
 
Date/Time
EST
Temp
°C
Wind Pressure Rain since
9am
mm
Weather Cloud Vis
km
Sea
Height
m
Swell
Dir  Spd
kts
Gust
kts
hPa Trend Height
m
Period
s
Dir
15/11:30pm 27.3 WNW 5 13 1008.6 - - - - - - - - -
15/11:00pm 28.0 W 3 7 1008.6 - - - - - - - - -
15/10:30pm 28.0 SW 3 8 1008.5 - - - - - - - - -
15/10:00pm 27.2 WNW 1 2 1008.6 - - - - - - - - -
15/09:30pm 27.2 NW 4 7 1008.2 - - - - - - - - -
15/09:00pm 27.0 WNW 1 4 1008.0 - - - - - - - - -
15/08:30pm 27.3 WSW 4 7 1007.6 - - - - - - - - -
15/08:00pm 27.1 WSW 8 10 1007.3 - - - - - - - - -
15/07:30pm 27.4 WSW 6 9 1007.2 - - - - - - - - -
15/07:00pm 27.2 SW 2 7 1006.9 - - - - - - - - -
15/06:30pm 27.0 NW 4 8 1006.7 - - - - - - - - -
15/06:00pm 27.2 NNW 6 10 1006.4 - - - - - - - - -
15/05:30pm 28.3 NE 6 9 1006.0 - - - - - - - - -
15/05:00pm 27.9 ENE 4 6 1005.9 - - - - - - - - -
15/04:30pm 28.0 WNW 8 13 1005.8 - - - - - - - - -
15/04:00pm 26.3 WSW 13 17 1006.0 - - - - - - - - -
15/03:30pm 26.4 W 14 19 1006.4 - - - - - - - - -
15/03:00pm 26.2 WSW 15 21 1006.8 - - - - - - - - -
15/02:54pm 26.1 W 15 21 1006.8 - - - - - - - - -
15/02:30pm 25.9 WNW 21 28 1007.2 - - - - - - - - -
15/02:09pm 26.3 WNW 19 29 1007.8 - - - - - - - - -
15/02:06pm 27.0 WNW 19 29 1007.9 - - - - - - - - -
15/02:00pm 27.0 NW 19 27 1007.8 - - - - - - - - -
15/01:30pm 28.1 NW 5 18 1008.0 - - - - - - - - -
15/01:00pm 27.6 NE 5 9 1008.0 - - - - - - - - -
15/12:30pm 27.5 NNE 4 8 1008.6 - - - - - - - - -
15/12:00pm 26.8 ENE 6 9 1008.7 - - - - - - - - -
15/11:30am 26.5 ENE 6 8 1009.1 - - - - - - - - -
15/11:00am 26.3 SW 7 9 1009.2 - - - - - - - - -
15/10:30am 25.1 WSW 9 12 1009.6 - - - - - - - - -
15/10:00am 25.6 SSW 3 5 1009.7 - - - - - - - - -
15/09:30am 25.9 SSW 3 5 1009.7 - - - - - - - - -
15/09:00am 25.6 NNW 2 3 1009.7 - - - - - - - - -
15/08:30am 25.2 NNW 3 9 1009.7 - - - - - - - - -
15/08:00am 25.1 NW 3 9 1009.6 - - - - - - - - -
15/07:30am 25.0 NE 3 10 1009.5 - - - - - - - - -
15/07:00am 24.9 ENE 8 12 1009.3 - - - - - - - - -
15/06:30am 25.0 W 1 7 1009.3 - - - - - - - - -
15/06:00am 25.7 WNW 1 4 1008.7 - - - - - - - - -
15/05:30am 25.4 W 3 5 1008.3 - - - - - - - - -

Other Formats:

Comma delimited format used in spreadsheet applications
http://www.bom.gov.au/fwo/IDQ60701/IDQ60701.94297.axf

JavaScript Object Notation format (JSON) in row-major order
http://www.bom.gov.au/fwo/IDQ60701/IDQ60701.94297.json